createdAt,value
2019-03-11T00:00:45.135Z,1006.35
2019-03-11T00:01:45.621Z,1006.40
2019-03-11T00:02:45.814Z,1006.40
2019-03-11T00:03:46.187Z,1006.40
2019-03-11T00:04:46.503Z,1006.44
2019-03-11T00:05:46.651Z,1006.37
2019-03-11T00:06:46.896Z,1006.37
2019-03-11T00:07:47.235Z,1006.40
2019-03-11T00:08:47.363Z,1006.41
2019-03-11T00:09:47.577Z,1006.38
2019-03-11T00:10:47.667Z,1006.38
2019-03-11T00:11:47.915Z,1006.34
2019-03-11T00:12:48.092Z,1006.39
2019-03-11T00:14:48.265Z,1006.42
2019-03-11T00:15:48.407Z,1006.39
2019-03-11T00:16:48.539Z,1006.39
2019-03-11T00:17:48.629Z,1006.33
2019-03-11T00:18:48.773Z,1006.33
2019-03-11T00:19:48.923Z,1006.40
2019-03-11T00:20:49.031Z,1006.29
2019-03-11T00:21:49.171Z,1006.43
2019-03-11T00:22:49.343Z,1006.31
2019-03-11T00:23:49.448Z,1006.28
2019-03-11T00:24:49.591Z,1006.29
2019-03-11T00:25:49.692Z,1006.25
2019-03-11T00:26:49.765Z,1006.33
2019-03-11T00:27:49.807Z,1006.23
2019-03-11T00:28:49.933Z,1006.23
2019-03-11T00:29:50.075Z,1006.23
2019-03-11T00:30:50.159Z,1006.26
2019-03-11T00:31:50.319Z,1006.23
2019-03-11T00:32:50.695Z,1006.22
2019-03-11T00:33:50.933Z,1006.20
2019-03-11T00:34:51.247Z,1006.30
2019-03-11T00:35:51.605Z,1006.31
2019-03-11T00:36:51.872Z,1006.31
2019-03-11T00:37:52.068Z,1006.24
2019-03-11T00:38:52.168Z,1006.29
2019-03-11T00:39:52.388Z,1006.27
2019-03-11T00:40:52.556Z,1006.26
2019-03-11T00:41:52.753Z,1006.23
2019-03-11T00:42:53.042Z,1006.22
2019-03-11T00:43:53.255Z,1006.14
2019-03-11T00:44:53.476Z,1006.23
2019-03-11T00:45:53.680Z,1006.17
2019-03-11T00:46:53.844Z,1006.16
2019-03-11T00:48:01.985Z,1006.19
2019-03-11T00:48:54.259Z,1006.11
2019-03-11T00:49:54.416Z,1006.15
2019-03-11T00:50:54.609Z,1006.15
2019-03-11T00:51:54.847Z,1006.10
2019-03-11T00:52:55.054Z,1006.15
2019-03-11T00:53:55.239Z,1006.10
2019-03-11T00:54:55.420Z,1006.09
2019-03-11T00:55:55.609Z,1006.13
2019-03-11T00:56:55.842Z,1006.07
2019-03-11T00:57:56.018Z,1006.06
2019-03-11T00:58:56.285Z,1006.02
2019-03-11T00:59:56.457Z,1005.99
2019-03-11T01:00:56.667Z,1005.99
2019-03-11T01:01:56.864Z,1005.96
2019-03-11T01:02:57.024Z,1006.03
2019-03-11T01:03:57.157Z,1006.05
2019-03-11T01:04:57.389Z,1005.99
2019-03-11T01:05:57.625Z,1005.88
2019-03-11T01:06:57.777Z,1005.89
2019-03-11T01:07:58.019Z,1005.87
2019-03-11T01:08:58.234Z,1005.84
2019-03-11T01:09:58.395Z,1005.94
2019-03-11T01:10:58.608Z,1005.94
2019-03-11T01:11:58.801Z,1005.96
2019-03-11T01:12:59.027Z,1005.95
2019-03-11T01:13:59.235Z,1005.91
2019-03-11T01:14:59.511Z,1005.95
2019-03-11T01:16:59.716Z,1005.89
2019-03-11T01:17:59.902Z,1005.98
2019-03-11T01:19:00.058Z,1005.87
2019-03-11T01:20:00.343Z,1005.92
2019-03-11T01:21:00.711Z,1005.86
2019-03-11T01:22:00.960Z,1005.81
2019-03-11T01:23:01.444Z,1005.78
2019-03-11T01:24:01.887Z,1005.82
2019-03-11T01:25:04.837Z,1005.76
2019-03-11T01:26:02.285Z,1005.70
2019-03-11T01:27:02.497Z,1005.73
2019-03-11T01:28:02.764Z,1005.72
2019-03-11T01:29:02.887Z,1005.69
2019-03-11T01:30:03.028Z,1005.69
2019-03-11T01:31:03.233Z,1005.58
2019-03-11T01:32:03.407Z,1005.51
2019-03-11T01:33:03.451Z,1005.48
2019-03-11T01:34:03.601Z,1005.44
2019-03-11T01:35:03.708Z,1005.37
2019-03-11T01:36:04.033Z,1005.38
2019-03-11T01:37:04.226Z,1005.38
2019-03-11T01:38:04.774Z,1005.46
2019-03-11T01:39:04.413Z,1005.42
2019-03-11T01:40:04.663Z,1005.30
2019-03-11T01:41:04.858Z,1005.39
2019-03-11T01:42:05.039Z,1005.37
2019-03-11T01:43:05.255Z,1005.30
2019-03-11T01:44:05.437Z,1005.29
2019-03-11T01:45:05.582Z,1005.34
2019-03-11T01:46:06.140Z,1005.40
2019-03-11T01:47:06.303Z,1005.37
2019-03-11T01:48:06.509Z,1005.37
2019-03-11T01:49:06.790Z,1005.29
2019-03-11T01:50:07.262Z,1005.35
2019-03-11T01:51:07.392Z,1005.27
2019-03-11T01:52:07.571Z,1005.27
2019-03-11T01:53:07.816Z,1005.23
2019-03-11T01:54:08.073Z,1005.24
2019-03-11T01:55:08.237Z,1005.09
2019-03-11T01:56:08.521Z,1005.08
2019-03-11T01:58:08.813Z,1005.07
2019-03-11T01:59:09.025Z,1004.93
2019-03-11T02:00:09.303Z,1004.96
2019-03-11T02:01:09.302Z,1004.90
2019-03-11T02:02:09.463Z,1004.90
2019-03-11T02:03:09.627Z,1004.81
2019-03-11T02:04:09.776Z,1004.89
2019-03-11T02:05:09.877Z,1004.87
2019-03-11T02:06:10.085Z,1004.85
2019-03-11T02:07:10.273Z,1004.74
2019-03-11T02:08:10.460Z,1004.69
2019-03-11T02:09:10.582Z,1004.67
2019-03-11T02:10:10.791Z,1004.74
2019-03-11T02:11:11.006Z,1004.67
2019-03-11T02:12:11.243Z,1004.63
2019-03-11T02:13:11.351Z,1004.63
2019-03-11T02:14:11.608Z,1004.66
2019-03-11T02:15:11.813Z,1004.60
2019-03-11T02:16:12.027Z,1004.59
2019-03-11T02:17:12.127Z,1004.65
2019-03-11T02:18:12.283Z,1004.53
2019-03-11T02:19:12.541Z,1004.53
2019-03-11T02:20:12.746Z,1004.55
2019-03-11T02:21:12.987Z,1004.65
2019-03-11T02:22:13.209Z,1004.51
2019-03-11T02:23:13.454Z,1004.54
2019-03-11T02:24:13.547Z,1004.40
2019-03-11T02:25:13.842Z,1004.44
2019-03-11T02:26:14.069Z,1004.42
2019-03-11T02:27:14.274Z,1004.40
2019-03-11T02:28:14.445Z,1004.38
2019-03-11T02:29:14.617Z,1004.41
2019-03-11T02:30:14.741Z,1004.30
2019-03-11T02:31:14.920Z,1004.25
2019-03-11T02:32:15.117Z,1004.23
2019-03-11T02:34:15.353Z,1004.27
2019-03-11T02:35:15.573Z,1004.21
2019-03-11T02:37:15.660Z,1004.28
2019-03-11T02:38:15.828Z,1004.17
2019-03-11T02:39:16.054Z,1004.27
2019-03-11T02:40:16.555Z,1004.19
2019-03-11T02:41:16.853Z,1004.15
2019-03-11T02:42:17.158Z,1004.17
2019-03-11T02:43:17.474Z,1004.21
2019-03-11T02:44:17.693Z,1004.12
2019-03-11T02:45:17.904Z,1004.14
2019-03-11T02:46:18.064Z,1004.14
2019-03-11T02:47:18.286Z,1004.15
2019-03-11T02:48:18.370Z,1004.06
2019-03-11T02:49:18.539Z,1004.11
2019-03-11T02:50:18.766Z,1004.03
2019-03-11T02:51:18.879Z,1003.99
2019-03-11T02:52:18.968Z,1004.18
2019-03-11T02:53:19.128Z,1004.04
2019-03-11T02:54:19.221Z,1004.03
2019-03-11T02:55:19.316Z,1004.06
2019-03-11T02:56:19.476Z,1003.99
2019-03-11T02:57:19.602Z,1004.04
2019-03-11T02:58:19.683Z,1003.98
2019-03-11T02:59:19.853Z,1003.98
2019-03-11T03:00:19.955Z,1003.92
2019-03-11T03:01:20.030Z,1003.98
2019-03-11T03:02:20.374Z,1003.81
2019-03-11T03:03:20.713Z,1003.83
2019-03-11T03:04:21.090Z,1003.80
2019-03-11T03:05:21.309Z,1003.81
2019-03-11T03:06:21.678Z,1003.73
2019-03-11T03:07:21.915Z,1003.80
2019-03-11T03:08:22.004Z,1003.76
2019-03-11T03:09:22.260Z,1003.77
2019-03-11T03:10:22.476Z,1003.89
2019-03-11T03:11:22.660Z,1003.82
2019-03-11T03:12:22.843Z,1003.88
2019-03-11T03:13:23.001Z,1003.82
2019-03-11T03:14:23.240Z,1003.74
2019-03-11T03:15:23.608Z,1003.83
2019-03-11T03:16:23.694Z,1003.80
2019-03-11T03:17:23.945Z,1003.78
2019-03-11T03:18:24.203Z,1003.69
2019-03-11T03:19:24.341Z,1003.74
2019-03-11T03:20:24.514Z,1003.64
2019-03-11T03:21:24.730Z,1003.71
2019-03-11T03:22:24.914Z,1003.74
2019-03-11T03:23:25.155Z,1003.74
2019-03-11T03:24:25.349Z,1003.67
2019-03-11T03:25:33.849Z,1003.66
2019-03-11T03:26:25.812Z,1003.67
2019-03-11T03:27:25.962Z,1003.50
2019-03-11T03:28:26.141Z,1003.66
2019-03-11T03:29:26.386Z,1003.43
2019-03-11T03:30:26.657Z,1003.69
2019-03-11T03:31:26.747Z,1003.68
2019-03-11T03:32:26.986Z,1003.71
2019-03-11T03:33:27.166Z,1003.77
2019-03-11T03:34:27.433Z,1003.80
2019-03-11T03:35:27.561Z,1003.84
2019-03-11T03:36:27.810Z,1003.77
2019-03-11T03:37:28.023Z,1003.85
2019-03-11T03:38:30.934Z,1003.79
2019-03-11T03:39:28.427Z,1003.92
2019-03-11T03:40:28.648Z,1003.87
2019-03-11T03:41:28.832Z,1003.88
2019-03-11T03:42:29.087Z,1003.85
2019-03-11T03:43:29.225Z,1003.78
2019-03-11T03:44:29.487Z,1003.83
2019-03-11T03:45:29.526Z,1003.85
2019-03-11T03:46:29.707Z,1003.88
2019-03-11T03:47:29.826Z,1003.97
2019-03-11T03:48:30.113Z,1003.99
2019-03-11T03:49:30.173Z,1004.13
2019-03-11T03:50:30.340Z,1004.23
2019-03-11T03:51:30.702Z,1004.14
2019-03-11T03:52:31.021Z,1004.21
2019-03-11T03:53:31.224Z,1004.14
2019-03-11T03:55:31.581Z,1004.18
2019-03-11T03:56:31.793Z,1004.16
2019-03-11T03:57:31.964Z,1004.05
2019-03-11T03:58:32.124Z,1004.07
2019-03-11T04:00:32.343Z,1004.10
2019-03-11T04:01:32.510Z,1004.13
2019-03-11T04:02:32.653Z,1004.09
2019-03-11T04:03:32.728Z,1004.14
2019-03-11T04:04:32.832Z,1004.21
2019-03-11T04:05:32.942Z,1004.26
2019-03-11T04:06:32.993Z,1004.14
2019-03-11T04:07:33.002Z,1004.07
2019-03-11T04:09:33.170Z,1004.06
2019-03-11T04:10:33.382Z,1004.13
2019-03-11T04:11:33.543Z,1004.02
2019-03-11T04:12:33.648Z,1004.06
2019-03-11T04:13:33.767Z,1004.05
2019-03-11T04:14:33.878Z,1004.01
2019-03-11T04:15:34.082Z,1003.97
2019-03-11T04:16:34.129Z,1004.04
2019-03-11T04:17:34.244Z,1004.13
2019-03-11T04:18:34.362Z,1004.09
2019-03-11T04:19:34.602Z,1004.14
2019-03-11T04:20:34.710Z,1004.14
2019-03-11T04:21:34.872Z,1004.11
2019-03-11T04:22:35.001Z,1004.11
2019-03-11T04:23:35.162Z,1004.11
2019-03-11T04:24:35.415Z,1004.10
2019-03-11T04:25:35.642Z,1004.10
2019-03-11T04:26:36.017Z,1004.12
2019-03-11T04:27:36.206Z,1004.15
2019-03-11T04:28:36.411Z,1004.12
2019-03-11T04:29:36.638Z,1004.10
2019-03-11T04:30:36.900Z,1004.05
2019-03-11T04:31:37.114Z,1004.07
2019-03-11T04:32:37.269Z,1004.10
2019-03-11T04:33:37.519Z,1004.22
2019-03-11T04:34:37.706Z,1004.27
2019-03-11T04:35:37.899Z,1004.17
2019-03-11T04:36:38.113Z,1004.18
2019-03-11T04:37:38.365Z,1004.24
2019-03-11T04:38:38.525Z,1004.31
2019-03-11T04:39:38.704Z,1004.34
2019-03-11T04:40:38.864Z,1004.23
2019-03-11T04:41:39.035Z,1004.22
2019-03-11T04:42:39.208Z,1004.21
2019-03-11T04:43:39.399Z,1004.13
2019-03-11T04:44:39.720Z,1004.17
2019-03-11T04:45:39.900Z,1004.17
2019-03-11T04:46:40.161Z,1004.18
2019-03-11T04:47:40.347Z,1004.18
2019-03-11T04:48:40.490Z,1004.22
2019-03-11T04:49:40.610Z,1004.24
2019-03-11T04:50:40.861Z,1004.23
2019-03-11T04:51:41.095Z,1004.30
2019-03-11T04:52:41.281Z,1004.29
2019-03-11T04:53:41.647Z,1004.30
2019-03-11T04:54:41.857Z,1004.25
2019-03-11T04:55:42.014Z,1004.23
2019-03-11T04:56:42.168Z,1004.20
2019-03-11T04:57:42.320Z,1004.20
2019-03-11T04:58:42.407Z,1004.22
2019-03-11T04:59:42.581Z,1004.24
2019-03-11T05:00:42.815Z,1004.33
2019-03-11T05:01:42.999Z,1004.38
2019-03-11T05:02:43.105Z,1004.35
2019-03-11T05:03:45.961Z,1004.42
2019-03-11T05:04:43.411Z,1004.40
2019-03-11T05:05:43.633Z,1004.61
2019-03-11T05:06:43.746Z,1004.47
2019-03-11T05:07:43.971Z,1004.54
2019-03-11T05:08:44.173Z,1004.81
2019-03-11T05:09:44.308Z,1004.88
2019-03-11T05:10:44.464Z,1004.93
2019-03-11T05:11:44.702Z,1005.06
2019-03-11T05:12:44.827Z,1005.10
2019-03-11T05:13:45.021Z,1005.13
2019-03-11T05:14:45.198Z,1005.19
2019-03-11T05:15:45.408Z,1005.19
2019-03-11T05:16:45.616Z,1005.23
2019-03-11T05:17:48.320Z,1005.12
2019-03-11T05:18:46.052Z,1005.20
2019-03-11T05:19:46.291Z,1005.10
2019-03-11T05:20:46.448Z,1005.26
2019-03-11T05:21:46.717Z,1005.16
2019-03-11T05:22:46.907Z,1005.17
2019-03-11T05:23:47.050Z,1005.14
2019-03-11T05:24:47.270Z,1005.18
2019-03-11T05:25:47.394Z,1005.17
2019-03-11T05:26:47.546Z,1005.17
2019-03-11T05:27:47.714Z,1005.20
2019-03-11T05:28:49.375Z,1005.28
2019-03-11T05:29:48.005Z,1005.27
2019-03-11T05:30:48.241Z,1005.22
2019-03-11T05:31:48.371Z,1005.26
2019-03-11T05:32:48.487Z,1005.22
2019-03-11T05:33:48.668Z,1005.32
2019-03-11T05:34:48.801Z,1005.17
2019-03-11T05:35:48.962Z,1005.23
2019-03-11T05:36:49.124Z,1005.27
2019-03-11T05:37:49.263Z,1005.27
2019-03-11T05:38:49.323Z,1005.26
2019-03-11T05:39:49.464Z,1005.24
2019-03-11T05:40:49.515Z,1005.26
2019-03-11T05:41:49.639Z,1005.05
2019-03-11T05:42:49.684Z,1005.07
2019-03-11T05:43:49.779Z,1005.17
2019-03-11T05:44:49.912Z,1005.06
2019-03-11T05:45:50.144Z,1005.13
2019-03-11T05:46:50.315Z,1005.16
2019-03-11T05:47:50.473Z,1005.07
2019-03-11T05:48:50.731Z,1005.05
2019-03-11T05:49:50.971Z,1005.17
2019-03-11T05:50:51.061Z,1005.14
2019-03-11T05:51:51.749Z,1005.19
2019-03-11T05:52:51.378Z,1005.35
2019-03-11T05:53:51.530Z,1005.23
2019-03-11T05:54:51.662Z,1005.18
2019-03-11T05:55:51.911Z,1005.31
2019-03-11T05:56:51.999Z,1005.35
2019-03-11T05:57:52.229Z,1005.35
2019-03-11T05:58:52.451Z,1005.36
2019-03-11T05:59:52.644Z,1005.38
2019-03-11T06:00:52.836Z,1005.36
2019-03-11T06:01:52.984Z,1005.55
2019-03-11T06:02:53.113Z,1005.39
2019-03-11T06:03:53.264Z,1005.47
2019-03-11T06:04:53.596Z,1005.35
2019-03-11T06:05:53.869Z,1005.42
2019-03-11T06:06:54.004Z,1005.39
2019-03-11T06:07:54.386Z,1005.43
2019-03-11T06:08:54.503Z,1005.23
2019-03-11T06:09:54.684Z,1005.34
2019-03-11T06:10:54.980Z,1005.27
2019-03-11T06:11:55.073Z,1005.30
2019-03-11T06:12:55.216Z,1005.23
2019-03-11T06:13:55.489Z,1005.24
2019-03-11T06:14:55.705Z,1005.24
2019-03-11T06:15:56.051Z,1005.23
2019-03-11T06:16:56.270Z,1005.29
2019-03-11T06:17:56.489Z,1005.30
2019-03-11T06:18:56.671Z,1005.30
2019-03-11T06:19:56.824Z,1005.30
2019-03-11T06:20:57.093Z,1005.28
2019-03-11T06:21:57.401Z,1005.27
2019-03-11T06:22:57.780Z,1005.27
2019-03-11T06:23:58.162Z,1005.25
2019-03-11T06:24:58.354Z,1005.27
2019-03-11T06:25:58.463Z,1005.27
2019-03-11T06:26:58.626Z,1005.30
2019-03-11T06:27:58.785Z,1005.30
2019-03-11T06:28:58.956Z,1005.30
2019-03-11T06:29:59.169Z,1005.32
2019-03-11T06:30:59.363Z,1005.33
2019-03-11T06:31:59.519Z,1005.34
2019-03-11T06:32:59.727Z,1005.32
2019-03-11T06:33:59.845Z,1005.33
2019-03-11T06:34:59.977Z,1005.32
2019-03-11T06:36:00.175Z,1005.35
2019-03-11T06:37:00.417Z,1005.35
2019-03-11T06:38:00.663Z,1005.37
2019-03-11T06:39:05.689Z,1005.37
2019-03-11T06:40:01.347Z,1005.38
2019-03-11T06:42:01.649Z,1005.38
2019-03-11T06:43:02.148Z,1005.38
2019-03-11T06:44:02.344Z,1005.40
2019-03-11T06:45:02.429Z,1005.40
2019-03-11T06:46:02.686Z,1005.40
2019-03-11T06:47:02.789Z,1005.41
2019-03-11T06:48:03.020Z,1005.41
2019-03-11T06:49:03.137Z,1005.41
2019-03-11T06:50:03.266Z,1005.40
2019-03-11T06:51:03.584Z,1005.38
2019-03-11T06:52:03.833Z,1005.38
2019-03-11T06:53:03.800Z,1005.38
2019-03-11T06:54:03.912Z,1005.39
2019-03-11T06:55:04.071Z,1005.40
2019-03-11T06:56:04.185Z,1005.39
2019-03-11T06:57:04.405Z,1005.40
2019-03-11T06:58:04.524Z,1005.38
2019-03-11T06:59:04.618Z,1005.38
2019-03-11T07:00:05.077Z,1005.38
2019-03-11T07:01:04.741Z,1005.36
2019-03-11T07:02:04.816Z,1005.36
2019-03-11T07:03:04.839Z,1005.36
2019-03-11T07:04:04.960Z,1005.38
2019-03-11T07:05:05.144Z,1005.40
2019-03-11T07:06:05.318Z,1005.40
2019-03-11T07:07:05.548Z,1005.41
2019-03-11T07:08:05.716Z,1005.41
2019-03-11T07:09:06.101Z,1005.42
2019-03-11T07:10:06.134Z,1005.42
2019-03-11T07:11:06.239Z,1005.41
2019-03-11T07:12:06.423Z,1005.41
2019-03-11T07:13:06.676Z,1005.40
2019-03-11T07:14:06.900Z,1005.40
2019-03-11T07:15:07.073Z,1005.40
2019-03-11T07:16:09.337Z,1005.40
2019-03-11T07:17:07.442Z,1005.44
2019-03-11T07:18:07.645Z,1005.47
2019-03-11T07:19:07.880Z,1005.46
2019-03-11T07:20:08.077Z,1005.48
2019-03-11T07:21:08.628Z,1005.49
2019-03-11T07:22:08.827Z,1005.49
2019-03-11T07:23:08.957Z,1005.49
2019-03-11T07:24:09.304Z,1005.47
2019-03-11T07:25:09.521Z,1005.48
2019-03-11T07:26:09.702Z,1005.48
2019-03-11T07:27:09.940Z,1005.48
2019-03-11T07:28:10.171Z,1005.48
2019-03-11T07:29:10.286Z,1005.49
2019-03-11T07:30:10.534Z,1005.46
2019-03-11T07:31:10.842Z,1005.45
2019-03-11T07:32:11.074Z,1005.44
2019-03-11T07:33:11.293Z,1005.45
2019-03-11T07:34:16.025Z,1005.44
2019-03-11T07:35:11.951Z,1005.42
2019-03-11T07:36:12.151Z,1005.44
2019-03-11T07:37:12.495Z,1005.42
2019-03-11T07:38:12.563Z,1005.45
2019-03-11T07:39:12.757Z,1005.49
2019-03-11T07:40:12.932Z,1005.50
2019-03-11T07:41:13.143Z,1005.49
2019-03-11T07:42:13.278Z,1005.45
2019-03-11T07:43:13.510Z,1005.47
2019-03-11T07:44:13.753Z,1005.48
2019-03-11T07:45:14.023Z,1005.50
2019-03-11T07:46:14.134Z,1005.52
2019-03-11T07:47:14.371Z,1005.52
2019-03-11T07:48:14.476Z,1005.49
2019-03-11T07:49:14.615Z,1005.52
2019-03-11T07:50:14.788Z,1005.53
2019-03-11T07:51:15.011Z,1005.53
2019-03-11T07:52:15.223Z,1005.53
2019-03-11T07:53:15.497Z,1005.52
2019-03-11T07:54:15.794Z,1005.52
2019-03-11T07:55:16.106Z,1005.51
2019-03-11T07:56:16.263Z,1005.48
2019-03-11T07:57:16.522Z,1005.47
2019-03-11T07:58:16.801Z,1005.48
2019-03-11T07:59:16.927Z,1005.49
2019-03-11T08:00:17.226Z,1005.48
2019-03-11T08:01:17.468Z,1005.48
2019-03-11T08:02:18.471Z,1005.48
2019-03-11T08:03:17.820Z,1005.50
2019-03-11T08:04:17.948Z,1005.50
2019-03-11T08:05:18.079Z,1005.52
2019-03-11T08:07:18.219Z,1005.52
2019-03-11T08:08:18.324Z,1005.53
2019-03-11T08:09:18.513Z,1005.54
2019-03-11T08:10:18.678Z,1005.54
2019-03-11T08:11:18.773Z,1005.56
2019-03-11T08:12:18.910Z,1005.55
2019-03-11T08:13:19.065Z,1005.57
2019-03-11T08:14:19.179Z,1005.59
2019-03-11T08:15:19.278Z,1005.57
2019-03-11T08:16:19.377Z,1005.57
2019-03-11T08:17:19.496Z,1005.57
2019-03-11T08:18:19.604Z,1005.58
2019-03-11T08:19:19.716Z,1005.58
2019-03-11T08:20:19.811Z,1005.59
2019-03-11T08:21:19.967Z,1005.60
2019-03-11T08:22:20.291Z,1005.60
2019-03-11T08:23:20.470Z,1005.63
2019-03-11T08:24:20.714Z,1005.64
2019-03-11T08:25:20.921Z,1005.67
2019-03-11T08:26:21.101Z,1005.69
2019-03-11T08:27:21.392Z,1005.70
2019-03-11T08:28:21.603Z,1005.71
2019-03-11T08:29:21.854Z,1005.75
2019-03-11T08:30:22.094Z,1005.78
2019-03-11T08:31:22.156Z,1005.81
2019-03-11T08:32:22.274Z,1005.80
2019-03-11T08:33:22.521Z,1005.79
2019-03-11T08:34:22.703Z,1005.77
2019-03-11T08:35:22.905Z,1005.77
2019-03-11T08:36:23.122Z,1005.75
2019-03-11T08:37:23.341Z,1005.76
2019-03-11T08:38:23.483Z,1005.76
2019-03-11T08:39:23.654Z,1005.78
2019-03-11T08:40:23.916Z,1005.79
2019-03-11T08:41:24.142Z,1005.79
2019-03-11T08:42:24.339Z,1005.82
2019-03-11T08:43:24.564Z,1005.84
2019-03-11T08:44:24.739Z,1005.85
2019-03-11T08:45:24.893Z,1005.85
2019-03-11T08:46:25.030Z,1005.87
2019-03-11T08:47:24.819Z,1005.88
2019-03-11T08:48:25.549Z,1005.89
2019-03-11T08:49:25.758Z,1005.89
2019-03-11T08:50:26.002Z,1005.89
2019-03-11T08:51:26.241Z,1005.92
2019-03-11T08:52:26.506Z,1005.93
2019-03-11T08:53:26.733Z,1005.94
2019-03-11T08:54:26.865Z,1005.95
2019-03-11T08:55:27.116Z,1005.96
2019-03-11T08:56:27.231Z,1005.98
2019-03-11T08:57:27.444Z,1006.01
2019-03-11T08:58:27.630Z,1006.00
2019-03-11T08:59:27.821Z,1006.00
2019-03-11T09:00:27.914Z,1006.01
2019-03-11T09:01:28.079Z,1006.00
2019-03-11T09:02:28.300Z,1005.99
2019-03-11T09:03:28.445Z,1005.98
2019-03-11T09:04:28.586Z,1005.96
2019-03-11T09:05:28.743Z,1006.00
2019-03-11T09:06:28.946Z,1006.00
2019-03-11T09:07:29.099Z,1005.99
2019-03-11T09:08:29.264Z,1005.99
2019-03-11T09:09:31.610Z,1006.01
2019-03-11T09:10:29.538Z,1006.04
2019-03-11T09:11:29.651Z,1006.04
2019-03-11T09:12:29.849Z,1006.04
2019-03-11T09:13:30.670Z,1006.05
2019-03-11T09:14:30.226Z,1006.06
2019-03-11T09:15:30.404Z,1006.07
2019-03-11T09:16:30.661Z,1006.10
2019-03-11T09:18:30.914Z,1006.12
2019-03-11T09:19:31.143Z,1006.16
2019-03-11T09:20:31.343Z,1006.19
2019-03-11T09:21:31.669Z,1006.17
2019-03-11T09:22:31.878Z,1006.22
2019-03-11T09:23:32.078Z,1006.23
2019-03-11T09:24:32.280Z,1006.26
2019-03-11T09:25:32.373Z,1006.32
2019-03-11T09:26:32.535Z,1006.33
2019-03-11T09:27:32.778Z,1006.38
2019-03-11T09:28:33.043Z,1006.38
2019-03-11T09:29:33.088Z,1006.40
2019-03-11T09:30:33.242Z,1006.41
2019-03-11T09:31:33.354Z,1006.43
2019-03-11T09:32:33.496Z,1006.42
2019-03-11T09:33:33.594Z,1006.40
2019-03-11T09:34:33.746Z,1006.40
2019-03-11T09:35:33.889Z,1006.40
2019-03-11T09:36:34.001Z,1006.43
2019-03-11T09:37:34.047Z,1006.44
2019-03-11T09:38:34.187Z,1006.47
2019-03-11T09:39:34.327Z,1006.48
2019-03-11T09:40:34.464Z,1006.53
2019-03-11T09:41:34.553Z,1006.56
2019-03-11T09:42:34.593Z,1006.61
2019-03-11T09:43:34.675Z,1006.65
2019-03-11T09:44:34.771Z,1006.67
2019-03-11T09:45:34.866Z,1006.67
2019-03-11T09:46:34.998Z,1006.69
2019-03-11T09:47:35.129Z,1006.73
2019-03-11T09:48:35.281Z,1006.72
2019-03-11T09:49:35.463Z,1006.71
2019-03-11T09:50:35.552Z,1006.71
2019-03-11T09:51:35.752Z,1006.71
2019-03-11T09:52:35.911Z,1006.70
2019-03-11T09:53:36.112Z,1006.69
2019-03-11T09:54:36.333Z,1006.68
2019-03-11T09:55:36.671Z,1006.66
2019-03-11T09:56:43.198Z,1006.60
2019-03-11T09:57:37.022Z,1006.60
2019-03-11T09:58:37.215Z,1006.60
2019-03-11T09:59:37.376Z,1006.59
2019-03-11T10:00:37.599Z,1006.59
2019-03-11T10:01:37.756Z,1006.58
2019-03-11T10:02:37.872Z,1006.57
2019-03-11T10:03:37.998Z,1006.56
2019-03-11T10:04:38.238Z,1006.55
2019-03-11T10:05:38.310Z,1006.58
2019-03-11T10:06:38.487Z,1006.59
2019-03-11T10:07:38.809Z,1006.59
2019-03-11T10:08:38.815Z,1006.62
2019-03-11T10:09:39.029Z,1006.66
2019-03-11T10:10:39.245Z,1006.68
2019-03-11T10:11:39.453Z,1006.71
2019-03-11T10:12:39.551Z,1006.73
2019-03-11T10:13:39.639Z,1006.73
2019-03-11T10:14:39.861Z,1006.77
2019-03-11T10:15:40.009Z,1006.79
2019-03-11T10:16:40.287Z,1006.82
2019-03-11T10:17:40.424Z,1006.84
2019-03-11T10:18:40.592Z,1006.87
2019-03-11T10:19:40.781Z,1006.86
2019-03-11T10:20:40.966Z,1006.86
2019-03-11T10:21:41.048Z,1006.89
2019-03-11T10:22:41.167Z,1006.88
2019-03-11T10:23:41.354Z,1006.88
2019-03-11T10:24:41.486Z,1006.91
2019-03-11T10:25:41.653Z,1006.92
2019-03-11T10:26:41.849Z,1006.93
2019-03-11T10:27:42.103Z,1006.90
2019-03-11T10:28:42.239Z,1006.89
2019-03-11T10:29:42.445Z,1006.88
2019-03-11T10:30:42.687Z,1006.88
2019-03-11T10:31:42.913Z,1006.87
2019-03-11T10:32:43.214Z,1006.90
2019-03-11T10:33:43.470Z,1006.89
2019-03-11T10:34:43.734Z,1006.88
2019-03-11T10:35:43.972Z,1006.89
2019-03-11T10:37:44.198Z,1006.90
2019-03-11T10:38:44.383Z,1006.90
2019-03-11T10:39:44.608Z,1006.95
2019-03-11T10:40:44.822Z,1006.97
2019-03-11T10:41:44.974Z,1006.98
2019-03-11T10:42:45.192Z,1007.00
2019-03-11T10:43:45.367Z,1007.05
2019-03-11T10:44:45.596Z,1007.10
2019-03-11T10:45:45.868Z,1007.12
2019-03-11T10:46:46.208Z,1007.13
2019-03-11T10:47:46.346Z,1007.14
2019-03-11T10:48:46.626Z,1007.15
2019-03-11T10:49:46.975Z,1007.13
2019-03-11T10:50:47.140Z,1007.14
2019-03-11T10:51:47.254Z,1007.15
2019-03-11T10:52:47.391Z,1007.15
2019-03-11T10:53:47.520Z,1007.15
2019-03-11T10:54:47.827Z,1007.15
2019-03-11T10:56:47.921Z,1007.19
2019-03-11T10:57:48.015Z,1007.19
2019-03-11T10:58:48.187Z,1007.20
2019-03-11T10:59:48.289Z,1007.22
2019-03-11T11:00:48.447Z,1007.24
2019-03-11T11:01:48.568Z,1007.25
2019-03-11T11:02:48.611Z,1007.26
2019-03-11T11:03:48.796Z,1007.28
2019-03-11T11:04:48.944Z,1007.31
2019-03-11T11:05:48.989Z,1007.32
2019-03-11T11:06:49.049Z,1007.32
2019-03-11T11:07:49.100Z,1007.31
2019-03-11T11:08:49.229Z,1007.30
2019-03-11T11:09:49.277Z,1007.31
2019-03-11T11:10:49.334Z,1007.33
2019-03-11T11:11:49.451Z,1007.35
2019-03-11T11:12:49.547Z,1007.35
2019-03-11T11:13:49.678Z,1007.35
2019-03-11T11:14:49.789Z,1007.33
2019-03-11T11:15:49.913Z,1007.31
2019-03-11T11:16:50.041Z,1007.32
2019-03-11T11:17:50.155Z,1007.33
2019-03-11T11:18:50.351Z,1007.39
2019-03-11T11:19:50.429Z,1007.41
2019-03-11T11:20:50.694Z,1007.37
2019-03-11T11:21:06.308Z,1007.42
2019-03-11T11:22:07.406Z,1007.40
2019-03-11T11:23:07.854Z,1007.39
2019-03-11T11:24:08.170Z,1007.39
2019-03-11T11:25:08.582Z,1007.38
2019-03-11T11:26:09.010Z,1007.42
2019-03-11T11:27:09.287Z,1007.42
2019-03-11T11:28:09.528Z,1007.40
2019-03-11T11:29:09.906Z,1007.41
2019-03-11T11:30:10.153Z,1007.42
2019-03-11T11:31:10.292Z,1007.41
2019-03-11T11:32:10.801Z,1007.44
2019-03-11T11:33:11.099Z,1007.42
2019-03-11T11:34:11.592Z,1007.41
2019-03-11T11:35:11.518Z,1007.42
2019-03-11T11:36:11.734Z,1007.42
2019-03-11T11:37:12.144Z,1007.46
2019-03-11T11:38:12.459Z,1007.48
2019-03-11T11:39:12.877Z,1007.50
2019-03-11T11:40:13.151Z,1007.53
2019-03-11T11:41:12.691Z,1007.54
2019-03-11T11:42:13.106Z,1007.54
2019-03-11T11:43:13.516Z,1007.50
2019-03-11T11:44:13.933Z,1007.51
2019-03-11T11:45:14.451Z,1007.50
2019-03-11T11:46:16.528Z,1007.49
2019-03-11T11:47:14.246Z,1007.51
2019-03-11T11:48:14.367Z,1007.53
2019-03-11T11:49:14.682Z,1007.56
2019-03-11T11:50:15.201Z,1007.61
2019-03-11T11:51:15.418Z,1007.62
2019-03-11T11:52:15.418Z,1007.63
2019-03-11T11:53:15.318Z,1007.62
2019-03-11T11:54:15.839Z,1007.64
2019-03-11T11:55:15.953Z,1007.66
2019-03-11T11:56:15.758Z,1007.65
2019-03-11T11:57:16.166Z,1007.67
2019-03-11T11:58:16.580Z,1007.68
2019-03-11T11:59:17.098Z,1007.68
2019-03-11T12:01:17.124Z,1007.70
2019-03-11T12:02:17.428Z,1007.70
2019-03-11T12:03:17.640Z,1007.68
2019-03-11T12:04:17.745Z,1007.67
2019-03-11T12:05:18.272Z,1007.68
2019-03-11T12:06:18.282Z,1007.67
2019-03-11T12:07:18.324Z,1007.66
2019-03-11T12:08:18.796Z,1007.68
2019-03-11T12:09:18.703Z,1007.67
2019-03-11T12:11:19.221Z,1007.70
2019-03-11T12:12:19.437Z,1007.74
2019-03-11T12:13:19.650Z,1007.77
2019-03-11T12:14:19.652Z,1007.80
2019-03-11T12:15:19.784Z,1007.81
2019-03-11T12:16:20.196Z,1007.80
2019-03-11T12:17:20.394Z,1007.84
2019-03-11T12:18:20.709Z,1007.81
2019-03-11T12:19:20.957Z,1007.84
2019-03-11T12:20:21.128Z,1007.85
2019-03-11T12:21:21.553Z,1007.88
2019-03-11T12:22:21.858Z,1007.91